Time;durP1;ratioP1;P1;durP2;ratioP2;P2;SDS_P1;SDS_P2;PMS_P1;PMS_P2;Temp;Humidity;BMP_temperature;BMP_pressure;BME280_temperature;BME280_humidity;BME280_pressure;Samples;Min_cycle;Max_cycle;Signal;HPM_P1;HPM_P2
2021/08/06 00:00:55;;;;;;;2.38;1.73;;;18.00;99.90;;;;;;4992388;28;20141;-47
2021/08/06 00:03:21;;;;;;;1.80;1.70;;;18.00;99.90;;;;;;4991905;28;20041;-50
2021/08/06 00:05:47;;;;;;;2.00;1.80;;;18.00;99.90;;;;;;4991970;28;20038;-49
2021/08/06 00:08:12;;;;;;;3.45;1.85;;;18.00;99.90;;;;;;4992316;28;20038;-48
2021/08/06 00:10:38;;;;;;;2.28;1.80;;;18.00;99.90;;;;;;4992430;28;20487;-50
2021/08/06 00:13:03;;;;;;;3.67;1.90;;;18.00;99.90;;;;;;4991805;28;20026;-48
2021/08/06 00:15:29;;;;;;;5.90;2.30;;;18.00;99.90;;;;;;4992229;28;20052;-46
2021/08/06 00:17:54;;;;;;;1.98;1.88;;;18.00;99.90;;;;;;4992240;28;20026;-45
2021/08/06 00:20:20;;;;;;;2.53;2.33;;;18.00;99.90;;;;;;4992155;28;20361;-48
2021/08/06 00:22:45;;;;;;;2.47;1.85;;;18.00;99.90;;;;;;4991919;28;20062;-48
2021/08/06 00:25:11;;;;;;;3.33;2.13;;;18.00;99.90;;;;;;4992047;28;20365;-46
2021/08/06 00:27:36;;;;;;;2.28;2.05;;;18.00;99.90;;;;;;4992032;28;20026;-47
2021/08/06 00:30:03;;;;;;;2.20;2.00;;;18.00;99.90;;;;;;4992014;28;20050;-44
2021/08/06 00:32:29;;;;;;;2.30;2.10;;;18.00;99.90;;;;;;4991637;28;20027;-46
2021/08/06 00:34:54;;;;;;;2.60;2.35;;;18.00;99.90;;;;;;4991767;28;20446;-50
2021/08/06 00:37:19;;;;;;;3.50;1.90;;;18.00;99.90;;;;;;4991939;28;20065;-45
2021/08/06 00:39:48;;;;;;;3.67;2.05;;;17.90;99.90;;;;;;4992498;28;20035;-45
2021/08/06 00:42:14;;;;;;;2.50;2.30;;;17.90;99.90;;;;;;4991794;28;20629;-47
2021/08/06 00:44:39;;;;;;;3.55;2.33;;;17.80;99.90;;;;;;4992999;28;20105;-49
2021/08/06 00:47:05;;;;;;;2.75;2.08;;;17.90;99.90;;;;;;4993200;28;20037;-48
2021/08/06 00:49:30;;;;;;;2.30;2.20;;;17.80;99.90;;;;;;4992729;28;20112;-49
2021/08/06 00:51:56;;;;;;;2.58;2.38;;;17.80;99.90;;;;;;4975205;28;20082;-49
2021/08/06 00:54:23;;;;;;;2.05;1.95;;;17.70;99.90;;;;;;4992495;28;20498;-51
2021/08/06 00:56:50;;;;;;;2.40;2.17;;;17.70;99.90;;;;;;4975208;28;20022;-47
2021/08/06 00:59:16;;;;;;;2.97;2.30;;;17.80;99.90;;;;;;4993285;28;20038;-47
2021/08/06 01:01:49;;;;;;;2.92;2.28;;;17.80;99.90;;;;;;4992739;28;20483;-50
2021/08/06 01:04:23;;;;;;;2.65;2.42;;;17.70;99.90;;;;;;4992507;28;20023;-50
2021/08/06 01:07:01;;;;;;;3.97;2.85;;;17.70;99.90;;;;;;4992950;28;20113;-48
2021/08/06 01:09:48;;;;;;;3.35;2.63;;;17.70;99.90;;;;;;4975778;28;20031;-47
2021/08/06 01:12:27;;;;;;;2.53;2.33;;;17.70;99.90;;;;;;4993191;28;20030;-44
2021/08/06 01:14:57;;;;;;;3.00;2.75;;;17.70;99.90;;;;;;4992880;28;20256;-45
2021/08/06 01:17:25;;;;;;;2.80;2.58;;;17.70;99.90;;;;;;4975593;28;20388;-49
2021/08/06 01:20:05;;;;;;;2.35;2.15;;;17.60;99.90;;;;;;4993000;28;20026;-48
2021/08/06 01:22:48;;;;;;;3.22;2.90;;;17.60;99.90;;;;;;4993083;28;20026;-48
2021/08/06 01:25:14;;;;;;;3.60;3.15;;;17.60;99.90;;;;;;4993620;28;20031;-45
2021/08/06 01:27:45;;;;;;;4.00;3.40;;;17.60;99.90;;;;;;4993154;28;20435;-46
2021/08/06 01:30:11;;;;;;;2.85;2.65;;;17.60;99.90;;;;;;4993273;28;20416;-45
2021/08/06 01:32:37;;;;;;;4.75;3.22;;;17.60;99.90;;;;;;4992483;28;20042;-46
2021/08/06 01:35:06;;;;;;;3.58;3.00;;;17.50;99.90;;;;;;4992836;28;20022;-48
2021/08/06 01:37:31;;;;;;;2.97;2.78;;;17.60;99.90;;;;;;4992701;28;20026;-51
2021/08/06 01:39:58;;;;;;;3.53;3.15;;;17.50;99.90;;;;;;4993311;28;20030;-47
2021/08/06 01:42:54;;;;;;;3.38;3.08;;;17.40;99.90;;;;;;4993330;28;20383;-50
2021/08/06 01:45:25;;;;;;;3.63;2.90;;;17.40;99.90;;;;;;4993706;28;20423;-46
2021/08/06 01:47:53;;;;;;;3.40;3.03;;;17.40;99.90;;;;;;4992807;28;20088;-47
2021/08/06 01:50:33;;;;;;;4.03;2.90;;;17.30;99.90;;;;;;4992258;28;20026;-45
2021/08/06 01:53:01;;;;;;;4.53;2.95;;;17.40;99.90;;;;;;4977470;28;20028;-48
2021/08/06 01:55:38;;;;;;;3.97;2.70;;;17.40;99.90;;;;;;4996399;28;20078;-46
2021/08/06 01:58:04;;;;;;;4.57;2.80;;;17.30;99.90;;;;;;4996597;28;20080;-47
2021/08/06 02:00:30;;;;;;;6.93;3.97;;;17.30;99.90;;;;;;4978593;28;20033;-48
2021/08/06 02:02:56;;;;;;;5.78;3.10;;;17.40;99.90;;;;;;4996095;28;20140;-46
2021/08/06 02:05:22;;;;;;;5.90;4.32;;;17.30;99.90;;;;;;4995922;28;20044;-49
2021/08/06 02:07:48;;;;;;;5.22;3.15;;;17.30;99.90;;;;;;4995801;28;20069;-48
2021/08/06 02:10:15;;;;;;;6.28;3.50;;;17.40;99.90;;;;;;4995817;28;20026;-51
2021/08/06 02:12:41;;;;;;;5.82;2.97;;;17.40;99.90;;;;;;4995564;28;20415;-48
2021/08/06 02:15:08;;;;;;;5.70;3.30;;;17.40;99.90;;;;;;4995304;28;20029;-47
2021/08/06 02:17:35;;;;;;;5.80;3.60;;;17.40;99.90;;;;;;4995277;28;20030;-46
2021/08/06 02:20:01;;;;;;;4.82;3.45;;;17.40;99.90;;;;;;4995062;28;20027;-52
2021/08/06 02:22:28;;;;;;;4.10;3.70;;;17.40;99.90;;;;;;4995202;28;20381;-46
2021/08/06 02:24:54;;;;;;;3.95;3.60;;;17.40;99.90;;;;;;4995622;28;20052;-47
2021/08/06 02:27:21;;;;;;;3.60;3.30;;;17.40;99.90;;;;;;4995532;28;20057;-49
2021/08/06 02:29:47;;;;;;;3.78;3.33;;;17.40;99.90;;;;;;4995616;28;20035;-48
2021/08/06 02:32:13;;;;;;;3.45;3.15;;;17.30;99.90;;;;;;4995667;28;20109;-53
2021/08/06 02:34:39;;;;;;;3.92;3.10;;;17.30;99.90;;;;;;4995680;28;20165;-50
2021/08/06 02:37:05;;;;;;;3.40;2.88;;;17.40;99.90;;;;;;4995141;28;20030;-47
2021/08/06 02:39:31;;;;;;;3.83;3.53;;;17.30;99.90;;;;;;4995302;28;20046;-51
2021/08/06 02:41:59;;;;;;;3.50;3.20;;;17.30;99.90;;;;;;4978048;28;20022;-45
2021/08/06 02:44:26;;;;;;;6.53;3.05;;;17.30;99.90;;;;;;4994809;28;20120;-50
2021/08/06 02:46:52;;;;;;;3.50;3.00;;;17.30;99.90;;;;;;4995363;28;20018;-45
2021/08/06 02:49:17;;;;;;;4.10;3.10;;;17.30;99.90;;;;;;4995558;28;20041;-46
2021/08/06 02:51:43;;;;;;;3.20;2.88;;;17.30;99.90;;;;;;4995010;28;20483;-46
2021/08/06 02:54:09;;;;;;;3.78;3.03;;;17.30;99.90;;;;;;4995390;28;20093;-52
2021/08/06 02:56:35;;;;;;;4.65;2.80;;;17.30;99.90;;;;;;4995591;28;20026;-50
2021/08/06 02:59:01;;;;;;;4.63;2.75;;;17.40;99.90;;;;;;4995138;28;20062;-52
2021/08/06 03:01:26;;;;;;;2.85;2.60;;;17.40;99.90;;;;;;4995378;28;20052;-45
2021/08/06 03:03:52;;;;;;;2.53;2.40;;;17.40;99.90;;;;;;4994060;28;20454;-47
2021/08/06 03:06:17;;;;;;;7.30;2.60;;;17.30;99.90;;;;;;4995368;28;20037;-48
2021/08/06 03:08:43;;;;;;;6.90;3.08;;;17.30;99.90;;;;;;4995477;28;20146;-50
2021/08/06 03:11:08;;;;;;;4.60;3.28;;;17.30;99.90;;;;;;4995263;28;20033;-46
2021/08/06 03:13:34;;;;;;;5.57;3.17;;;17.30;99.90;;;;;;4994967;28;20038;-47
2021/08/06 03:16:00;;;;;;;2.85;2.60;;;17.30;99.90;;;;;;4995588;28;20452;-49
2021/08/06 03:18:25;;;;;;;4.88;2.80;;;17.30;99.90;;;;;;4995873;28;20384;-51
2021/08/06 03:20:51;;;;;;;5.60;2.65;;;17.30;99.90;;;;;;4996299;28;20077;-45
2021/08/06 03:23:16;;;;;;;3.42;2.60;;;17.30;99.90;;;;;;4996454;28;20450;-46
2021/08/06 03:25:42;;;;;;;4.32;2.67;;;17.30;99.90;;;;;;4997063;28;20030;-47
2021/08/06 03:28:07;;;;;;;4.55;3.08;;;17.30;99.90;;;;;;4996742;28;20062;-45
2021/08/06 03:30:33;;;;;;;3.40;3.10;;;17.30;99.90;;;;;;4997077;28;20320;-45
2021/08/06 03:32:58;;;;;;;3.22;2.97;;;17.30;99.90;;;;;;4996420;28;20038;-46
2021/08/06 03:35:24;;;;;;;4.63;3.03;;;17.30;99.90;;;;;;4996208;28;20053;-46
2021/08/06 03:37:51;;;;;;;3.28;2.80;;;17.40;99.90;;;;;;4996002;28;20057;-47
2021/08/06 03:40:17;;;;;;;5.43;3.72;;;17.30;99.90;;;;;;4995838;28;20018;-47
2021/08/06 03:42:43;;;;;;;3.42;3.13;;;17.40;99.90;;;;;;4994996;28;20165;-48
2021/08/06 03:45:09;;;;;;;5.05;3.28;;;17.30;99.90;;;;;;4995797;28;20101;-46
2021/08/06 03:47:35;;;;;;;4.75;3.60;;;17.40;99.90;;;;;;4995791;28;20023;-45
2021/08/06 03:50:00;;;;;;;3.60;3.30;;;17.30;99.90;;;;;;4996028;28;20541;-45
2021/08/06 03:52:26;;;;;;;5.78;2.95;;;17.30;99.90;;;;;;4995158;28;20046;-49
2021/08/06 03:54:52;;;;;;;4.60;3.30;;;17.30;99.90;;;;;;4996505;28;20407;-45
2021/08/06 03:57:17;;;;;;;10.70;3.40;;;17.30;99.90;;;;;;4978273;28;20472;-46
2021/08/06 03:59:43;;;;;;;4.25;2.85;;;17.30;99.90;;;;;;4996432;28;20033;-45
2021/08/06 04:02:08;;;;;;;4.03;3.15;;;17.30;99.90;;;;;;4995394;28;20045;-45
2021/08/06 04:04:34;;;;;;;6.30;2.90;;;17.30;99.90;;;;;;4994919;28;20030;-45
2021/08/06 04:06:59;;;;;;;6.80;3.28;;;17.30;99.90;;;;;;4995635;28;20030;-45
2021/08/06 04:09:25;;;;;;;4.95;3.30;;;17.30;99.90;;;;;;4995246;28;20154;-46
2021/08/06 04:11:50;;;;;;;6.13;3.20;;;17.30;99.90;;;;;;4995343;28;20456;-47
2021/08/06 04:14:16;;;;;;;9.00;4.07;;;17.30;99.90;;;;;;4993554;28;20027;-47
2021/08/06 04:16:41;;;;;;;4.32;2.70;;;17.20;99.90;;;;;;4976929;28;20546;-48
2021/08/06 04:19:07;;;;;;;3.20;2.72;;;17.20;99.90;;;;;;4993891;28;20027;-47
2021/08/06 04:21:32;;;;;;;3.83;2.78;;;17.10;99.90;;;;;;4994374;28;20026;-50
2021/08/06 04:23:58;;;;;;;4.05;2.47;;;17.10;99.90;;;;;;4993913;28;20034;-47
2021/08/06 04:26:23;;;;;;;5.25;2.75;;;17.10;99.90;;;;;;4992251;28;20321;-47
2021/08/06 04:28:49;;;;;;;5.35;3.10;;;17.10;99.90;;;;;;4993516;28;20058;-48
2021/08/06 04:31:15;;;;;;;8.43;3.13;;;17.10;99.90;;;;;;4993699;28;20026;-46
2021/08/06 04:33:40;;;;;;;4.55;3.22;;;17.00;99.90;;;;;;4993510;28;20049;-47
2021/08/06 04:36:06;;;;;;;2.92;2.70;;;17.00;99.90;;;;;;4993293;28;20034;-44
2021/08/06 04:38:32;;;;;;;9.75;3.97;;;17.00;99.90;;;;;;4993580;28;20030;-48
2021/08/06 04:40:57;;;;;;;9.20;3.22;;;17.00;99.90;;;;;;4993498;28;20022;-48
2021/08/06 04:43:23;;;;;;;8.15;3.33;;;17.00;99.90;;;;;;4993152;28;20053;-48
2021/08/06 04:45:49;;;;;;;3.53;2.70;;;17.00;99.90;;;;;;4993459;28;20105;-44
2021/08/06 04:48:21;;;;;;;3.63;3.33;;;17.00;99.90;;;;;;4993846;28;20498;-45
2021/08/06 04:50:48;;;;;;;4.05;3.17;;;17.00;99.90;;;;;;4976322;28;20074;-45
2021/08/06 04:53:14;;;;;;;3.83;3.42;;;17.00;99.90;;;;;;4994942;28;20037;-46
2021/08/06 04:55:39;;;;;;;5.15;3.30;;;16.90;99.90;;;;;;4994575;28;20105;-46
2021/08/06 04:58:05;;;;;;;4.80;3.47;;;17.00;99.90;;;;;;4995001;28;20475;-45
2021/08/06 05:00:31;;;;;;;4.50;3.22;;;16.90;99.90;;;;;;4994548;28;20085;-45
2021/08/06 05:02:57;;;;;;;4.93;3.30;;;16.90;99.90;;;;;;4993860;28;20033;-49
2021/08/06 05:05:22;;;;;;;3.80;3.50;;;16.90;99.90;;;;;;4995287;28;20498;-45
2021/08/06 05:07:53;;;;;;;6.45;3.55;;;16.90;99.90;;;;;;4994443;28;20030;-48
2021/08/06 05:10:21;;;;;;;4.25;3.60;;;16.90;99.90;;;;;;4994605;28;20026;-49
2021/08/06 05:12:47;;;;;;;4.18;3.45;;;16.90;99.90;;;;;;4994217;28;20019;-48
2021/08/06 05:15:13;;;;;;;4.38;3.40;;;16.90;99.90;;;;;;4994878;28;20037;-47
2021/08/06 05:17:38;;;;;;;3.65;3.35;;;16.80;99.90;;;;;;4994467;28;20057;-47
2021/08/06 05:20:05;;;;;;;3.40;3.10;;;16.90;99.90;;;;;;4976805;28;20075;-45
2021/08/06 05:22:31;;;;;;;3.65;3.17;;;16.90;99.90;;;;;;4993991;28;20029;-45
2021/08/06 05:24:57;;;;;;;4.25;2.88;;;16.90;99.90;;;;;;4993890;28;20030;-46
2021/08/06 05:27:23;;;;;;;4.70;3.40;;;16.90;99.90;;;;;;4998267;28;20085;-46
2021/08/06 05:29:48;;;;;;;4.38;3.00;;;16.90;99.90;;;;;;5001137;28;20030;-45
2021/08/06 05:32:14;;;;;;;4.10;3.70;;;16.90;99.90;;;;;;5000775;28;20026;-45
2021/08/06 05:34:39;;;;;;;3.30;2.85;;;16.90;99.90;;;;;;5001062;28;20026;-47
2021/08/06 05:37:05;;;;;;;5.38;3.50;;;16.90;99.90;;;;;;4983497;28;20034;-46
2021/08/06 05:39:30;;;;;;;3.85;2.90;;;16.80;99.90;;;;;;5001367;28;20034;-46
2021/08/06 05:41:56;;;;;;;3.20;2.90;;;16.90;99.90;;;;;;5001545;28;20082;-48
2021/08/06 05:44:21;;;;;;;6.85;3.80;;;16.90;99.90;;;;;;5001836;28;20050;-48
2021/08/06 05:46:47;;;;;;;3.97;3.55;;;17.00;99.90;;;;;;5006677;28;20026;-48
2021/08/06 05:49:13;;;;;;;4.43;3.33;;;16.90;99.90;;;;;;5006799;28;20029;-51
2021/08/06 05:51:38;;;;;;;4.70;3.25;;;17.00;99.90;;;;;;5005333;28;20436;-52
2021/08/06 05:54:04;;;;;;;5.55;3.63;;;17.00;99.90;;;;;;5002921;28;20039;-48
2021/08/06 05:56:30;;;;;;;8.43;3.90;;;17.00;99.90;;;;;;5003992;28;20030;-49
2021/08/06 05:58:56;;;;;;;7.15;3.40;;;17.00;99.90;;;;;;4990106;28;20444;-54
2021/08/06 06:01:22;;;;;;;6.60;5.07;;;17.00;99.90;;;;;;4998994;28;20034;-52
2021/08/06 06:03:48;;;;;;;3.45;3.15;;;17.00;99.90;;;;;;4996615;28;20030;-46
2021/08/06 06:06:13;;;;;;;5.78;3.55;;;17.00;99.90;;;;;;4996403;28;20044;-45
2021/08/06 06:08:38;;;;;;;7.15;4.20;;;17.00;99.90;;;;;;4996185;28;20045;-51
2021/08/06 06:11:04;;;;;;;7.43;3.60;;;17.10;99.90;;;;;;4997336;28;20368;-48
2021/08/06 06:13:30;;;;;;;8.57;3.92;;;17.00;99.90;;;;;;4995310;28;20081;-49
2021/08/06 06:15:56;;;;;;;8.23;3.85;;;17.00;99.90;;;;;;4994124;28;20035;-48
2021/08/06 06:18:21;;;;;;;4.00;3.70;;;17.00;99.90;;;;;;4990754;28;20030;-52
2021/08/06 06:20:47;;;;;;;6.85;3.70;;;17.00;99.90;;;;;;4997182;28;20065;-51
2021/08/06 06:23:13;;;;;;;4.85;3.60;;;17.10;99.90;;;;;;4996120;28;20053;-60
2021/08/06 06:25:39;;;;;;;5.60;4.10;;;17.20;99.90;;;;;;4999890;28;20072;-59
2021/08/06 06:28:05;;;;;;;8.82;3.80;;;17.20;99.90;;;;;;4986024;28;20395;-60
2021/08/06 06:30:33;;;;;;;4.88;3.90;;;17.30;99.90;;;;;;4979267;28;20070;-62
2021/08/06 06:33:00;;;;;;;4.30;3.90;;;17.30;99.90;;;;;;4996995;28;20018;-52
2021/08/06 06:35:27;;;;;;;9.32;5.70;;;17.30;99.90;;;;;;4999904;28;20512;-53
2021/08/06 06:37:53;;;;;;;4.95;4.05;;;17.30;99.90;;;;;;4998911;28;20065;-51
2021/08/06 06:40:20;;;;;;;4.65;4.25;;;17.30;99.90;;;;;;4995581;28;20211;-47
2021/08/06 06:42:47;;;;;;;7.72;4.15;;;17.40;99.90;;;;;;4993928;28;20065;-47
2021/08/06 06:45:13;;;;;;;6.50;4.10;;;17.40;99.90;;;;;;4994122;28;20030;-51
2021/08/06 06:47:44;;;;;;;4.80;4.03;;;17.50;99.90;;;;;;4994002;28;20105;-48
2021/08/06 06:50:13;;;;;;;4.63;4.22;;;17.50;99.90;;;;;;4993865;28;20026;-46
2021/08/06 06:52:39;;;;;;;6.13;4.53;;;17.50;99.90;;;;;;4992311;28;20028;-47
2021/08/06 06:55:06;;;;;;;4.85;4.45;;;17.60;99.90;;;;;;4993771;28;20030;-51
2021/08/06 06:57:31;;;;;;;5.57;4.72;;;17.60;99.90;;;;;;4994248;28;20483;-50
2021/08/06 06:59:57;;;;;;;5.28;4.47;;;17.70;99.90;;;;;;4993734;28;20029;-50
2021/08/06 07:02:23;;;;;;;5.75;4.22;;;17.70;99.90;;;;;;4993308;28;20101;-49
2021/08/06 07:04:49;;;;;;;6.55;4.32;;;17.70;99.90;;;;;;4993420;28;20029;-47
2021/08/06 07:07:15;;;;;;;4.90;4.50;;;17.80;99.90;;;;;;4993436;28;20109;-48
2021/08/06 07:09:40;;;;;;;7.85;5.05;;;17.70;99.90;;;;;;4976060;28;20023;-47
2021/08/06 07:12:06;;;;;;;6.88;5.60;;;17.80;99.90;;;;;;4993435;28;20065;-49
2021/08/06 07:14:32;;;;;;;8.32;5.53;;;17.80;99.90;;;;;;4993035;28;20499;-48
2021/08/06 07:16:58;;;;;;;5.25;4.75;;;17.80;99.90;;;;;;4993256;28;20033;-53
2021/08/06 07:19:24;;;;;;;7.90;4.97;;;17.80;99.90;;;;;;4993249;28;20084;-49
2021/08/06 07:21:50;;;;;;;5.65;5.15;;;17.90;99.90;;;;;;4993452;28;20439;-51
2021/08/06 07:24:15;;;;;;;5.70;5.20;;;17.90;99.90;;;;;;4992977;28;20161;-51
2021/08/06 07:26:41;;;;;;;6.35;5.75;;;17.90;99.90;;;;;;4993481;28;20048;-50
2021/08/06 07:29:07;;;;;;;7.30;5.65;;;17.90;99.90;;;;;;4975700;28;20407;-52
2021/08/06 07:31:33;;;;;;;6.22;5.63;;;17.90;99.90;;;;;;4993216;28;20037;-53
2021/08/06 07:33:59;;;;;;;8.20;6.18;;;17.80;99.90;;;;;;4992684;28;20022;-52
2021/08/06 07:36:24;;;;;;;7.30;5.03;;;17.80;99.90;;;;;;4993106;28;20038;-51
2021/08/06 07:38:50;;;;;;;7.25;5.78;;;17.80;99.90;;;;;;4992921;28;20030;-52
2021/08/06 07:41:15;;;;;;;10.35;6.57;;;17.90;99.90;;;;;;4993340;28;20460;-47
2021/08/06 07:43:41;;;;;;;5.72;5.25;;;17.90;99.90;;;;;;4992728;28;20087;-48
2021/08/06 07:46:06;;;;;;;7.20;6.05;;;17.90;99.90;;;;;;4993171;28;20072;-50
2021/08/06 07:48:32;;;;;;;8.43;5.60;;;17.80;99.90;;;;;;4992686;28;20038;-52
2021/08/06 07:50:57;;;;;;;7.18;6.47;;;17.80;99.90;;;;;;4992204;28;20415;-50
2021/08/06 07:53:23;;;;;;;4.20;3.80;;;17.70;99.90;;;;;;4992501;28;20463;-47
2021/08/06 07:55:49;;;;;;;5.05;4.55;;;17.70;99.90;;;;;;4992590;28;20034;-49
2021/08/06 07:58:15;;;;;;;5.72;5.10;;;17.70;99.90;;;;;;4992548;28;20030;-47
2021/08/06 08:00:40;;;;;;;5.90;4.43;;;17.70;99.90;;;;;;4992685;28;20030;-51
2021/08/06 08:03:06;;;;;;;4.95;4.40;;;17.70;99.90;;;;;;4992165;28;20121;-48
2021/08/06 08:05:31;;;;;;;3.78;3.42;;;17.70;99.90;;;;;;4992500;28;20030;-50
2021/08/06 08:07:57;;;;;;;3.35;3.05;;;17.80;99.90;;;;;;4992676;28;20065;-46
2021/08/06 08:10:23;;;;;;;4.00;3.00;;;18.00;99.90;;;;;;4992687;28;20046;-52
2021/08/06 08:12:48;;;;;;;3.60;3.30;;;18.00;99.90;;;;;;4992215;28;20027;-46
2021/08/06 08:15:14;;;;;;;4.97;3.80;;;18.20;99.90;;;;;;4991250;28;20053;-50
2021/08/06 08:17:39;;;;;;;4.35;3.95;;;18.30;99.90;;;;;;4989869;28;20097;-48
2021/08/06 08:20:05;;;;;;;6.45;3.53;;;18.30;99.90;;;;;;4990120;28;20368;-47
2021/08/06 08:22:31;;;;;;;3.60;3.15;;;18.40;99.90;;;;;;4990336;28;20030;-47
2021/08/06 08:24:57;;;;;;;4.88;3.50;;;18.40;99.90;;;;;;4991997;28;20041;-48
2021/08/06 08:27:22;;;;;;;3.35;2.78;;;18.50;99.90;;;;;;4987755;28;20026;-48
2021/08/06 08:29:48;;;;;;;3.67;3.35;;;18.50;99.90;;;;;;4992460;28;20022;-49
2021/08/06 08:32:15;;;;;;;9.25;2.80;;;18.50;99.90;;;;;;4984497;28;20030;-46
2021/08/06 08:34:41;;;;;;;2.88;2.10;;;18.50;99.90;;;;;;4989819;28;20317;-47
2021/08/06 08:37:06;;;;;;;2.17;2.08;;;18.50;99.90;;;;;;4991415;28;20555;-46
2021/08/06 08:39:32;;;;;;;2.17;1.98;;;18.40;99.90;;;;;;4991442;28;20039;-46
2021/08/06 08:42:02;;;;;;;1.90;1.70;;;18.30;99.90;;;;;;4987039;28;20025;-54
2021/08/06 08:44:31;;;;;;;4.72;1.80;;;18.30;99.90;;;;;;4989854;28;20081;-51
2021/08/06 08:46:58;;;;;;;1.60;1.50;;;18.40;99.90;;;;;;4979528;28;20112;-47
2021/08/06 08:49:29;;;;;;;1.38;1.30;;;18.40;99.90;;;;;;4991193;28;20487;-54
2021/08/06 08:51:55;;;;;;;1.92;1.20;;;18.50;99.90;;;;;;4991426;28;20038;-48
2021/08/06 08:54:20;;;;;;;1.40;1.30;;;18.50;99.90;;;;;;4991346;28;20037;-45
2021/08/06 08:56:46;;;;;;;1.23;1.23;;;18.40;99.90;;;;;;4990777;28;20080;-48
2021/08/06 08:59:11;;;;;;;2.25;1.00;;;18.40;99.90;;;;;;4991202;28;20038;-49
2021/08/06 09:01:37;;;;;;;1.02;0.60;;;18.30;99.90;;;;;;4990392;28;20026;-47
2021/08/06 09:04:18;;;;;;;1.27;1.02;;;18.30;99.90;;;;;;4991686;28;20030;-54
2021/08/06 09:06:44;;;;;;;1.20;0.80;;;18.40;99.90;;;;;;4995962;28;20103;-53
2021/08/06 09:09:15;;;;;;;1.58;1.30;;;18.40;99.90;;;;;;4988726;28;20057;-52
2021/08/06 09:11:40;;;;;;;3.10;1.08;;;18.40;99.90;;;;;;4992284;28;20403;-50
2021/08/06 09:14:36;;;;;;;1.30;1.20;;;18.60;99.90;;;;;;4986963;28;20030;-52
2021/08/06 09:17:10;;;;;;;1.10;0.98;;;18.70;99.90;;;;;;4966259;28;20038;-50
2021/08/06 09:19:56;;;;;;;1.10;1.00;;;18.90;99.90;;;;;;4990965;28;20050;-47
2021/08/06 09:22:24;;;;;;;1.38;1.23;;;19.00;99.90;;;;;;4990602;28;20698;-51
2021/08/06 09:25:13;;;;;;;1.10;1.10;;;19.10;99.90;;;;;;4990008;28;20022;-48
2021/08/06 09:27:43;;;;;;;1.20;1.10;;;19.20;99.90;;;;;;4998617;28;20025;-46
2021/08/06 09:30:29;;;;;;;1.25;1.17;;;19.40;99.90;;;;;;4978700;28;20054;-47
2021/08/06 09:32:56;;;;;;;2.47;1.23;;;19.50;99.90;;;;;;4990853;28;20030;-49
2021/08/06 09:35:27;;;;;;;4.18;1.17;;;19.70;99.90;;;;;;4990979;28;20031;-48
2021/08/06 09:37:54;;;;;;;6.72;1.48;;;19.80;99.90;;;;;;4990937;28;20619;-50
2021/08/06 09:40:29;;;;;;;3.42;1.42;;;19.90;99.90;;;;;;4990829;28;20178;-48
2021/08/06 09:43:02;;;;;;;2.63;1.58;;;20.10;99.90;;;;;;4990605;28;20056;-47
2021/08/06 09:45:37;;;;;;;1.92;1.73;;;20.30;99.90;;;;;;4990979;28;20022;-47
2021/08/06 09:48:03;;;;;;;1.92;1.70;;;20.70;99.90;;;;;;4990618;28;20026;-46
2021/08/06 09:50:38;;;;;;;3.30;1.40;;;21.00;99.90;;;;;;4990798;28;20041;-47
2021/08/06 09:53:05;;;;;;;2.90;1.60;;;21.30;99.90;;;;;;4990493;28;20025;-47
2021/08/06 09:55:36;;;;;;;5.70;2.22;;;21.20;99.90;;;;;;4990798;28;20262;-46
2021/08/06 09:58:07;;;;;;;3.13;2.20;;;20.90;99.90;;;;;;4990571;28;20057;-46
2021/08/06 10:00:37;;;;;;;3.15;2.55;;;20.80;99.90;;;;;;4990810;28;20031;-46
2021/08/06 10:03:02;;;;;;;2.60;2.00;;;20.60;99.90;;;;;;4990381;28;20023;-47
2021/08/06 10:05:31;;;;;;;2.70;2.17;;;20.40;99.90;;;;;;4990544;28;20561;-48
2021/08/06 10:07:58;;;;;;;5.15;2.35;;;20.40;99.90;;;;;;4990730;28;20057;-49
2021/08/06 10:10:36;;;;;;;4.00;1.85;;;20.40;99.90;;;;;;4990781;28;20035;-47
2021/08/06 10:13:03;;;;;;;2.22;1.77;;;20.40;99.90;;;;;;4974220;28;20022;-48
2021/08/06 10:15:29;;;;;;;1.52;1.42;;;20.40;99.90;;;;;;4994386;28;20024;-46
2021/08/06 10:17:57;;;;;;;3.00;2.03;;;20.30;99.90;;;;;;4994102;28;20026;-49
2021/08/06 10:20:25;;;;;;;2.47;1.58;;;20.20;99.90;;;;;;4994312;28;20038;-48
2021/08/06 10:22:52;;;;;;;5.38;1.95;;;20.20;99.90;;;;;;4993826;28;20045;-49
2021/08/06 10:25:20;;;;;;;4.68;1.60;;;20.30;99.90;;;;;;4994237;28;20026;-49
2021/08/06 10:27:47;;;;;;;2.95;1.85;;;20.40;99.90;;;;;;4994060;28;20033;-47
2021/08/06 10:30:23;;;;;;;2.22;1.60;;;20.50;99.90;;;;;;4993913;28;20066;-46
2021/08/06 10:33:06;;;;;;;2.22;1.38;;;20.60;99.90;;;;;;4993775;28;20139;-47
2021/08/06 10:35:43;;;;;;;2.85;1.35;;;20.80;99.90;;;;;;4976432;28;20062;-50
2021/08/06 10:38:09;;;;;;;1.23;1.23;;;20.80;99.90;;;;;;4976356;28;20023;-50
2021/08/06 10:40:38;;;;;;;2.67;1.25;;;20.80;99.90;;;;;;4993760;28;20365;-60
2021/08/06 10:43:10;;;;;;;1.30;0.82;;;20.70;99.90;;;;;;4993515;28;20027;-57
2021/08/06 10:45:45;;;;;;;4.22;1.05;;;20.70;99.90;;;;;;4993777;28;20508;-56
2021/08/06 10:48:50;;;;;;;4.70;0.93;;;20.70;99.90;;;;;;5644219;23;20509;-60
2021/08/06 10:51:20;;;;;;;1.45;0.85;;;20.60;99.90;;;;;;5036833;28;20497;-56
2021/08/06 10:54:08;;;;;;;2.40;1.10;;;20.50;99.90;;;;;;5026682;28;20033;-58
2021/08/06 10:56:39;;;;;;;1.73;1.40;;;20.40;99.90;;;;;;5042350;28;20030;-58
2021/08/06 10:59:13;;;;;;;6.60;0.80;;;20.40;99.90;;;;;;5041945;28;20048;-59
2021/08/06 11:01:45;;;;;;;0.98;0.98;;;20.30;99.90;;;;;;5042641;28;20026;-59
2021/08/06 11:04:16;;;;;;;2.60;0.98;;;20.30;99.90;;;;;;5023845;28;20048;-55
2021/08/06 11:06:53;;;;;;;2.00;1.08;;;20.40;99.90;;;;;;5024447;28;20033;-58
2021/08/06 11:09:25;;;;;;;2.58;1.55;;;20.40;99.90;;;;;;5041615;28;20026;-58
2021/08/06 11:12:10;;;;;;;0.77;0.77;;;20.50;99.90;;;;;;5023806;28;20029;-57
2021/08/06 11:14:38;;;;;;;;;;;20.50;99.90;;;;;;5042161;28;20128;-58
2021/08/06 11:17:16;;;;;;;4.95;1.20;;;20.70;99.90;;;;;;5024055;28;19912;-58
2021/08/06 11:19:43;;;;;;;1.27;1.08;;;20.90;99.90;;;;;;5042469;28;20069;-59
2021/08/06 11:22:20;;;;;;;1.40;0.93;;;21.10;99.90;;;;;;5042516;28;20018;-60
2021/08/06 11:24:55;;;;;;;5.53;1.63;;;21.10;99.90;;;;;;5042069;28;20029;-55
2021/08/06 11:27:30;;;;;;;1.00;0.82;;;21.10;99.90;;;;;;5042652;28;20026;-58
2021/08/06 11:30:06;;;;;;;1.52;0.80;;;21.10;99.90;;;;;;5024795;28;20041;-58
2021/08/06 11:32:45;;;;;;;6.22;0.90;;;21.20;99.90;;;;;;5022058;28;20108;-59
2021/08/06 11:35:10;;;;;;;1.77;0.80;;;21.50;99.90;;;;;;5039643;28;20108;-58
2021/08/06 11:37:50;;;;;;;3.60;1.13;;;21.50;99.90;;;;;;5041550;28;20658;-59
2021/08/06 11:40:16;;;;;;;1.48;0.90;;;21.70;99.90;;;;;;5042211;28;20513;-60
2021/08/06 11:42:42;;;;;;;0.70;0.70;;;21.70;99.90;;;;;;5042314;28;20021;-58
2021/08/06 11:45:10;;;;;;;3.63;1.00;;;21.80;99.90;;;;;;5041424;28;20079;-59
2021/08/06 11:47:46;;;;;;;2.75;1.00;;;21.90;99.90;;;;;;5040581;28;20021;-56
2021/08/06 11:50:38;;;;;;;1.85;0.75;;;22.00;99.90;;;;;;5041320;28;20049;-59
2021/08/06 11:53:17;;;;;;;0.80;0.70;;;22.10;99.30;;;;;;5041595;28;20030;-58
2021/08/06 11:55:44;;;;;;;2.60;0.70;;;22.20;99.00;;;;;;5041181;28;20057;-58
2021/08/06 11:58:10;;;;;;;1.15;0.68;;;22.20;99.00;;;;;;5040454;28;20030;-60
2021/08/06 12:00:37;;;;;;;2.88;0.80;;;22.20;99.30;;;;;;5042404;28;20382;-60
2021/08/06 12:03:13;;;;;;;0.60;0.60;;;22.30;98.40;;;;;;5042810;28;20025;-59
2021/08/06 12:05:47;;;;;;;1.38;0.80;;;22.30;97.90;;;;;;5040877;28;20028;-59
2021/08/06 12:08:24;;;;;;;2.83;1.00;;;22.20;98.80;;;;;;5039098;28;20441;-54
2021/08/06 12:11:04;;;;;;;1.83;0.70;;;22.30;98.70;;;;;;5040519;28;20283;-60
2021/08/06 12:13:29;;;;;;;0.60;0.60;;;22.30;98.60;;;;;;5040409;28;20036;-57
2021/08/06 12:16:02;;;;;;;1.83;0.70;;;22.40;98.10;;;;;;5041310;28;20077;-60
2021/08/06 12:18:29;;;;;;;1.20;0.50;;;22.50;96.90;;;;;;5021672;28;20021;-59
2021/08/06 12:21:03;;;;;;;1.23;0.60;;;22.40;96.80;;;;;;5022229;28;20026;-56
2021/08/06 12:23:28;;;;;;;0.85;0.50;;;22.30;96.70;;;;;;5038027;28;20053;-56
2021/08/06 12:26:14;;;;;;;0.73;0.65;;;22.10;97.50;;;;;;5038405;28;20030;-58
2021/08/06 12:28:44;;;;;;;0.60;0.60;;;22.00;97.90;;;;;;5039253;28;20029;-58
2021/08/06 12:31:25;;;;;;;0.60;0.60;;;21.80;98.00;;;;;;5038650;28;20108;-58
2021/08/06 12:34:11;;;;;;;8.48;1.88;;;21.80;98.20;;;;;;5038616;28;20036;-59
2021/08/06 12:36:39;;;;;;;0.63;0.63;;;21.60;98.50;;;;;;5039016;28;20028;-55
2021/08/06 12:39:08;;;;;;;0.85;0.60;;;21.50;98.30;;;;;;5037815;28;20417;-57
2021/08/06 12:41:34;;;;;;;0.60;0.57;;;21.50;99.10;;;;;;5040231;28;20036;-55
2021/08/06 12:44:25;;;;;;;2.40;0.70;;;21.50;98.20;;;;;;5020264;28;20021;-57
2021/08/06 12:46:58;;;;;;;4.63;0.63;;;21.50;98.20;;;;;;5020020;28;20030;-59
2021/08/06 12:49:27;;;;;;;4.57;0.55;;;21.60;97.80;;;;;;5036955;28;20039;-58
2021/08/06 12:52:04;;;;;;;1.23;0.40;;;21.70;97.50;;;;;;5038832;28;20039;-56
2021/08/06 12:54:42;;;;;;;0.70;0.50;;;21.80;97.60;;;;;;5039047;28;20374;-56